Time;durP1;ratioP1;P1;durP2;ratioP2;P2;SDS_P1;SDS_P2;PMS_P1;PMS_P2;Temp;Humidity;BMP_temperature;BMP_pressure;BME280_temperature;BME280_humidity;BME280_pressure;Samples;Min_cycle;Max_cycle;Signal;HPM_P1;HPM_P2
2023/01/13 00:00:20;;;;;;;;;0.67;0.67;;;;;13.15;85.88;-19562.50;4938180;28;46080;-81
2023/01/13 00:02:45;;;;;;;;;0.00;0.00;;;;;13.94;85.84;-19583.34;4938066;28;45529;-81
2023/01/13 00:05:11;;;;;;;;;0.00;0.00;;;;;13.92;86.04;-19582.81;4937129;28;45644;-81
2023/01/13 00:07:40;;;;;;;;;0.00;0.00;;;;;13.80;86.23;-19579.72;4921394;28;47018;-80
2023/01/13 00:10:09;;;;;;;;;0.00;0.00;;;;;13.66;86.78;-19576.09;4936776;28;47021;-81
2023/01/13 00:12:39;;;;;;;;;0.00;0.00;;;;;13.91;86.42;-19582.53;4921055;28;45776;-82
2023/01/13 00:15:05;;;;;;;;;0.00;0.00;;;;;13.90;86.17;-19582.41;4921649;28;45635;-82
2023/01/13 00:17:31;;;;;;;;;0.00;0.00;;;;;12.88;85.83;-19555.63;4939752;28;45480;-82
2023/01/13 00:19:56;;;;;;;;;0.00;0.00;;;;;13.44;86.23;-19570.31;4936118;28;45976;-82
2023/01/13 00:22:21;;;;;;;;;0.00;0.00;;;;;13.65;86.08;-19575.69;4936626;28;45746;-83
2023/01/13 00:24:47;;;;;;;;;0.00;0.00;;;;;13.88;85.66;-19581.72;4939736;28;45407;-83
2023/01/13 00:27:12;;;;;;;;;0.00;0.00;;;;;13.64;85.68;-19575.41;4946317;28;45607;-82
2023/01/13 00:29:37;;;;;;;;;0.00;0.00;;;;;13.47;85.10;-19571.09;4934517;28;45505;-82
2023/01/13 00:32:03;;;;;;;;;0.00;0.00;;;;;13.87;84.73;-19581.59;4930934;28;45786;-83
2023/01/13 00:34:28;;;;;;;;;0.00;0.00;;;;;13.38;84.73;-19568.56;4938282;28;45453;-83
2023/01/13 00:36:55;;;;;;;;;0.00;0.00;;;;;12.75;84.76;-19552.13;4922546;28;45634;-82
2023/01/13 00:39:20;;;;;;;;;0.00;0.00;;;;;13.30;83.97;-19566.53;4945860;28;46348;-82
2023/01/13 00:44:29;;;;;;;;;0.00;0.00;;;;;13.82;83.55;-19580.13;4943025;28;45549;-82
2023/01/13 00:46:55;;;;;;;;;0.00;0.00;;;;;13.59;84.15;-19574.06;4946169;28;45453;-82
2023/01/13 00:49:21;;;;;;;;;1.67;0.00;;;;;13.84;83.77;-19580.66;4946384;28;45492;-82
2023/01/13 00:51:46;;;;;;;;;0.00;0.00;;;;;12.40;83.18;-19542.84;4923096;28;46342;-82
2023/01/13 00:54:11;;;;;;;;;0.00;0.00;;;;;13.52;83.01;-19572.31;4930696;28;45912;-82
2023/01/13 00:56:37;;;;;;;;;0.67;0.00;;;;;13.63;83.22;-19575.28;4920797;28;45561;-82
2023/01/13 00:59:02;;;;;;;;;0.67;0.00;;;;;13.64;83.25;-19575.41;4920784;28;47036;-82
2023/01/13 01:01:28;;;;;;;;;0.00;0.00;;;;;12.77;83.13;-19552.69;4932429;28;45612;-82
2023/01/13 01:03:54;;;;;;;;;0.00;0.00;;;;;13.78;83.26;-19579.16;4934117;28;45812;-82
2023/01/13 01:06:24;;;;;;;;;0.67;0.67;;;;;13.39;83.53;-19568.97;4910602;28;45894;-82
2023/01/13 01:08:51;;;;;;;;;0.00;0.00;;;;;13.41;83.48;-19569.34;4933503;28;46276;-82
2023/01/13 01:11:22;;;;;;;;;0.00;0.00;;;;;13.01;83.68;-19558.88;4930788;28;45789;-82
2023/01/13 01:13:51;;;;;;;;;0.00;0.00;;;;;13.75;82.87;-19578.22;4926761;28;45383;-82
2023/01/13 01:16:18;;;;;;;;;0.00;0.00;;;;;13.73;82.72;-19577.97;4912096;28;46197;-82
2023/01/13 01:18:46;;;;;;;;;1.67;0.67;;;;;13.72;82.60;-19577.69;4934611;28;46059;-81
2023/01/13 01:21:13;;;;;;;;;0.67;0.67;;;;;13.69;82.67;-19576.75;4931949;28;45516;-82
2023/01/13 01:23:39;;;;;;;;;0.00;0.00;;;;;13.68;83.19;-19576.50;4921072;28;45560;-82
2023/01/13 01:26:07;;;;;;;;;1.00;1.00;;;;;13.64;82.18;-19575.53;4937677;28;45420;-82
2023/01/13 01:28:34;;;;;;;;;0.33;0.33;;;;;13.56;82.39;-19573.41;4932990;28;47041;-82
2023/01/13 01:31:04;;;;;;;;;0.00;0.00;;;;;13.32;82.85;-19566.94;4920791;28;45452;-83
2023/01/13 01:33:29;;;;;;;;;0.00;0.00;;;;;13.56;83.02;-19573.25;4928123;28;45374;-81
2023/01/13 01:35:54;;;;;;;;;0.33;0.33;;;;;13.33;82.75;-19567.22;4929349;28;45484;-82
2023/01/13 01:38:22;;;;;;;;;0.33;0.33;;;;;13.37;82.74;-19568.28;4937530;28;45528;-81
2023/01/13 01:40:47;;;;;;;;;1.00;1.00;;;;;13.21;82.50;-19564.25;4936134;28;45842;-82
2023/01/13 01:46:05;;;;;;;;;1.33;0.67;;;;;13.48;81.77;-19571.25;4936226;28;46747;-82
2023/01/13 01:48:39;;;;;;;;;2.67;2.00;;;;;12.99;81.05;-19558.31;4917921;28;47608;-81
2023/01/13 01:51:10;;;;;;;;;16.67;15.67;;;;;13.41;80.92;-19569.50;4919497;28;45463;-81
2023/01/13 01:53:35;;;;;;;;;20.00;18.50;;;;;12.77;80.86;-19552.53;4909888;28;45498;-82
2023/01/13 01:56:02;;;;;;;;;21.25;20.50;;;;;13.17;80.32;-19563.03;4933739;28;46840;-82
2023/01/13 01:58:44;;;;;;;;;5.33;5.33;;;;;13.26;80.65;-19565.59;4936482;28;45457;-81
2023/01/13 02:01:11;;;;;;;;;14.00;12.75;;;;;13.26;80.43;-19565.59;4930690;28;45820;-81
2023/01/13 02:03:40;;;;;;;;;7.00;7.00;;;;;13.22;80.62;-19564.38;4933946;28;45524;-82
2023/01/13 02:06:07;;;;;;;;;6.00;4.33;;;;;13.19;80.86;-19563.72;4932190;28;45420;-82
2023/01/13 02:08:34;;;;;;;;;5.00;5.00;;;;;13.17;80.50;-19563.03;4928644;28;45513;-82
2023/01/13 02:10:59;;;;;;;;;23.50;22.25;;;;;13.12;80.31;-19561.81;4932029;28;46835;-82
2023/01/13 02:13:25;;;;;;;;;6.33;4.67;;;;;13.08;80.78;-19560.88;4934670;28;45536;-82
2023/01/13 02:16:02;;;;;;;;;5.00;3.67;;;;;13.05;80.78;-19559.94;4934677;28;45750;-82
2023/01/13 02:18:45;;;;;;;;;14.25;14.25;;;;;13.03;80.58;-19559.41;4919202;28;46357;-82
2023/01/13 02:21:25;;;;;;;;;18.00;18.00;;;;;12.99;80.16;-19558.31;4925430;28;45853;-81
2023/01/13 02:27:09;;;;;;;;;30.50;29.50;;;;;12.91;79.96;-19556.19;4936507;28;45527;-82
2023/01/13 02:32:55;;;;;;;;;11.00;11.00;;;;;12.83;80.42;-19554.28;4930673;28;45452;-82
2023/01/13 02:35:38;;;;;;;;;6.33;6.00;;;;;12.66;80.40;-19549.72;4922854;28;45439;-82
2023/01/13 02:38:06;;;;;;;;;19.00;19.00;;;;;11.84;80.10;-19528.16;4931425;28;45534;-82
2023/01/13 02:40:58;;;;;;;;;11.00;11.00;;;;;12.00;80.47;-19532.34;4912522;28;46689;-81
2023/01/13 02:46:31;;;;;;;;;4.67;4.67;;;;;12.67;80.46;-19550.13;4932820;28;45432;-81
2023/01/13 02:49:04;;;;;;;;;2.33;2.33;;;;;12.52;80.36;-19545.94;4934597;28;45516;-81
2023/01/13 02:51:31;;;;;;;;;3.33;2.00;;;;;12.21;80.87;-19538.00;4930069;28;45435;-81
2023/01/13 02:54:06;;;;;;;;;13.75;13.75;;;;;12.57;80.24;-19547.44;4936417;28;45638;-81
2023/01/13 02:56:36;;;;;;;;;2.00;2.00;;;;;12.52;80.42;-19545.94;4914847;28;46403;-81
2023/01/13 02:59:02;;;;;;;;;3.33;3.33;;;;;12.66;80.87;-19549.72;4929280;28;45527;-81
2023/01/13 03:01:27;;;;;;;;;4.00;4.00;;;;;12.72;80.63;-19551.34;4930283;28;45388;-81
2023/01/13 03:03:53;;;;;;;;;2.33;2.33;;;;;12.59;80.64;-19547.84;4935526;28;45610;-80
2023/01/13 03:06:37;;;;;;;;;2.00;1.00;;;;;12.78;80.83;-19552.81;4935716;28;45667;-81
2023/01/13 03:09:15;;;;;;;;;5.00;4.33;;;;;12.79;80.74;-19553.09;4931839;28;45486;-81
2023/01/13 03:12:02;;;;;;;;;2.33;2.33;;;;;12.81;80.48;-19553.75;4934568;28;46288;-81
2023/01/13 03:14:36;;;;;;;;;2.67;2.67;;;;;12.55;80.36;-19546.88;4935434;28;45474;-82
2023/01/13 03:17:11;;;;;;;;;0.00;0.00;;;;;12.86;80.54;-19554.97;4916202;28;45466;-81
2023/01/13 03:19:42;;;;;;;;;4.00;4.00;;;;;12.84;80.35;-19554.56;4934976;28;45402;-82
2023/01/13 03:22:07;;;;;;;;;3.33;3.00;;;;;12.88;80.42;-19555.50;4933783;28;46078;-81
2023/01/13 03:24:36;;;;;;;;;6.67;6.67;;;;;12.87;79.75;-19555.38;4933091;28;45796;-81
2023/01/13 03:27:08;;;;;;;;;1.00;1.00;;;;;12.92;80.41;-19556.44;4940167;28;45707;-81
2023/01/13 03:29:54;;;;;;;;;27.75;27.75;;;;;12.50;79.39;-19545.53;4942512;28;45426;-81
2023/01/13 03:32:26;;;;;;;;;21.50;21.50;;;;;12.88;79.79;-19555.63;4938790;28;46248;-82
2023/01/13 03:34:59;;;;;;;;;23.75;23.75;;;;;12.78;79.42;-19552.94;4927258;28;45455;-82
2023/01/13 03:37:31;;;;;;;;;16.50;16.50;;;;;12.91;79.83;-19556.31;4933413;28;45460;-81
2023/01/13 03:40:01;;;;;;;;;22.25;21.50;;;;;12.91;79.17;-19556.19;4937232;28;45524;-82
2023/01/13 03:42:32;;;;;;;;;38.00;33.75;;;;;12.62;79.17;-19548.78;4940405;28;45464;-81
2023/01/13 03:45:18;;;;;;;;;39.25;33.75;;;;;12.92;79.33;-19556.56;4940890;28;45596;-82
2023/01/13 03:47:51;;;;;;;;;37.00;33.50;;;;;12.83;79.33;-19554.28;4940551;28;45477;-82
2023/01/13 03:50:20;;;;;;;;;37.50;33.25;;;;;12.93;79.07;-19556.72;4927218;28;45460;-82
2023/01/13 03:52:54;;;;;;;;;31.50;29.75;;;;;12.93;79.38;-19556.84;4939890;28;46611;-81
2023/01/13 03:55:25;;;;;;;;;38.25;34.25;;;;;12.94;79.46;-19556.97;4936946;28;45522;-81
2023/01/13 03:57:59;;;;;;;;;47.33;40.33;;;;;12.97;78.88;-19557.78;4929646;28;45501;-81
2023/01/13 04:00:31;;;;;;;;;47.67;41.00;;;;;13.01;78.80;-19558.88;4940055;28;45643;-81
2023/01/13 04:03:06;;;;;;;;;32.50;29.75;;;;;12.79;79.13;-19553.09;4935657;28;46263;-81
2023/01/13 04:05:38;;;;;;;;;35.75;32.75;;;;;12.70;79.23;-19550.66;4936813;28;45650;-81
2023/01/13 04:08:04;;;;;;;;;39.00;35.00;;;;;13.05;78.97;-19560.06;4935500;28;45432;-82
2023/01/13 04:11:09;;;;;;;;;52.33;43.33;;;;;12.84;78.61;-19554.44;4941701;28;45402;-81
2023/01/13 04:13:39;;;;;;;;;51.33;43.00;;;;;13.02;78.58;-19559.28;4867582;29;45828;-80
2023/01/13 04:16:06;;;;;;;;;57.00;47.75;;;;;12.62;78.39;-19548.63;4881963;29;45521;-80
2023/01/13 04:18:36;;;;;;;;;50.00;42.67;;;;;12.49;78.33;-19545.13;4882205;29;45623;-80
2023/01/13 04:21:03;;;;;;;;;48.00;41.00;;;;;12.68;78.11;-19550.38;4881230;29;45568;-80
2023/01/13 04:23:28;;;;;;;;;48.50;41.75;;;;;12.84;78.26;-19554.44;4861971;29;45749;-80
2023/01/13 04:25:54;;;;;;;;;48.00;41.00;;;;;12.45;77.68;-19544.19;4864284;29;45869;-80
2023/01/13 04:28:20;;;;;;;;;70.75;62.00;;;;;12.80;77.73;-19553.34;4899857;29;45484;-80
2023/01/13 04:30:46;;;;;;;;;53.33;45.00;;;;;12.68;77.80;-19550.25;4886782;29;45386;-80
2023/01/13 04:33:13;;;;;;;;;56.00;47.00;;;;;12.84;77.73;-19554.44;4880958;29;45731;-80
2023/01/13 04:35:39;;;;;;;;;64.75;54.00;;;;;12.59;77.64;-19547.97;4873337;29;45561;-80
2023/01/13 04:38:08;;;;;;;;;41.00;36.00;;;;;12.62;77.84;-19548.78;4868665;29;45485;-80
2023/01/13 04:40:34;;;;;;;;;67.50;56.50;;;;;12.78;77.38;-19552.81;4868096;29;45642;-81
2023/01/13 04:42:59;;;;;;;;;70.75;61.25;;;;;12.07;77.28;-19534.22;4871032;29;46794;-81
2023/01/13 04:45:24;;;;;;;;;68.00;58.50;;;;;12.74;76.79;-19551.88;4876561;29;45442;-82
2023/01/13 04:47:50;;;;;;;;;64.25;52.25;;;;;12.12;76.75;-19535.44;4916199;28;45405;-81
2023/01/13 04:50:19;;;;;;;;;71.50;64.00;;;;;12.73;76.43;-19551.47;4936947;28;45521;-81
2023/01/13 04:52:46;;;;;;;;;69.75;60.00;;;;;11.92;76.35;-19530.19;4927972;28;46274;-81
2023/01/13 04:55:12;;;;;;;;;64.50;53.25;;;;;12.54;76.08;-19546.50;4936318;28;46022;-81
2023/01/13 04:57:37;;;;;;;;;75.50;71.00;;;;;12.66;75.41;-19549.84;4937966;28;45464;-81
2023/01/13 05:00:05;;;;;;;;;77.75;74.75;;;;;12.51;75.88;-19545.69;4924163;28;45519;-81
2023/01/13 05:02:30;;;;;;;;;70.75;62.50;;;;;12.19;75.49;-19537.34;4910881;28;47093;-81
2023/01/13 05:04:56;;;;;;;;;65.50;54.00;;;;;12.55;75.32;-19546.88;4932677;28;45496;-81
2023/01/13 05:07:21;;;;;;;;;60.75;49.75;;;;;11.73;75.09;-19525.19;4935376;28;45467;-82
2023/01/13 05:09:46;;;;;;;;;63.00;51.25;;;;;12.41;75.52;-19543.13;4936139;28;45508;-81
2023/01/13 05:17:40;;;;;;;;;67.75;57.75;;;;;11.79;74.87;-19526.97;4936741;28;45433;-81
2023/01/13 05:20:07;;;;;;;;;58.50;48.00;;;;;12.29;75.00;-19539.88;4935580;28;45507;-81
2023/01/13 05:25:23;;;;;;;;;73.00;66.25;;;;;12.41;74.64;-19543.25;4924995;28;45441;-82
2023/01/13 05:27:51;;;;;;;;;74.75;68.75;;;;;11.88;74.62;-19529.25;4935402;28;45411;-81
2023/01/13 05:30:16;;;;;;;;;70.00;60.50;;;;;12.18;74.55;-19537.19;4934286;28;45598;-81
2023/01/13 05:32:42;;;;;;;;;74.00;67.75;;;;;11.74;74.64;-19525.59;4933086;28;45389;-81
2023/01/13 05:35:07;;;;;;;;;69.75;60.25;;;;;12.31;74.29;-19540.56;4934916;28;45391;-81
2023/01/13 05:37:33;;;;;;;;;75.75;70.25;;;;;11.64;74.54;-19522.91;4937480;28;45894;-81
2023/01/13 05:45:29;;;;;;;;;66.25;54.25;;;;;12.16;74.55;-19536.53;4934007;28;45380;-81
2023/01/13 05:47:56;;;;;;;;;72.25;64.25;;;;;11.54;74.91;-19520.34;4936889;28;45478;-82
2023/01/13 05:50:21;;;;;;;;;73.00;65.25;;;;;11.86;74.84;-19528.72;4933241;28;45480;-82
2023/01/13 05:52:46;;;;;;;;;73.75;68.00;;;;;12.20;74.60;-19537.59;4935636;28;45990;-80
2023/01/13 05:55:12;;;;;;;;;72.75;64.75;;;;;12.01;74.63;-19532.75;4931357;28;45806;-82
2023/01/13 05:57:37;;;;;;;;;75.00;69.00;;;;;12.17;74.67;-19536.94;4915395;28;45690;-82
2023/01/13 06:00:04;;;;;;;;;72.25;64.75;;;;;10.57;74.41;-19494.88;4933169;28;45519;-82
2023/01/13 06:02:29;;;;;;;;;73.75;66.00;;;;;12.16;74.61;-19536.53;4909435;28;48452;-81
2023/01/13 06:04:55;;;;;;;;;57.75;48.50;;;;;11.69;73.88;-19524.25;4933730;28;45466;-80
2023/01/13 06:07:20;;;;;;;;;66.25;55.25;;;;;12.09;74.16;-19534.78;4912964;28;47423;-82
2023/01/13 06:09:45;;;;;;;;;61.25;50.50;;;;;12.12;74.16;-19535.44;4934016;28;45522;-81
2023/01/13 06:12:12;;;;;;;;;60.00;49.25;;;;;11.75;73.90;-19525.88;4935259;28;46103;-83
2023/01/13 06:14:40;;;;;;;;;64.25;53.25;;;;;11.06;73.70;-19507.69;4929393;28;45563;-82
2023/01/13 06:17:07;;;;;;;;;55.25;46.75;;;;;12.10;73.78;-19534.91;4934215;28;45592;-83
2023/01/13 06:19:32;;;;;;;;;61.25;50.50;;;;;12.07;73.62;-19534.22;4933040;28;45501;-81
2023/01/13 06:22:01;;;;;;;;;62.25;51.00;;;;;11.22;73.86;-19511.88;4906483;28;47561;-82
2023/01/13 06:24:27;;;;;;;;;58.50;48.00;;;;;11.82;73.71;-19527.63;4936286;28;45429;-81
2023/01/13 06:26:52;;;;;;;;;58.00;48.00;;;;;12.07;73.66;-19534.09;4935022;28;45447;-82
2023/01/13 06:29:17;;;;;;;;;63.25;51.75;;;;;11.68;73.33;-19524.00;4932453;28;45545;-86
2023/01/13 06:31:43;;;;;;;;;62.75;51.75;;;;;11.56;73.60;-19520.75;4932636;28;46057;-84
2023/01/13 06:34:12;;;;;;;;;64.75;53.00;;;;;11.31;73.40;-19514.16;4928726;28;46201;-83
2023/01/13 06:36:42;;;;;;;;;62.75;51.00;;;;;11.68;73.52;-19523.84;4932921;28;45577;-83
2023/01/13 06:39:10;;;;;;;;;60.00;49.50;;;;;11.50;73.29;-19519.16;4933613;28;46533;-84
2023/01/13 06:44:22;;;;;;;;;62.50;51.50;;;;;11.59;73.11;-19521.69;4937047;28;45541;-83
2023/01/13 06:46:47;;;;;;;;;60.00;50.00;;;;;12.03;72.82;-19533.28;4948453;28;45843;-82
2023/01/13 06:49:13;;;;;;;;;59.00;48.50;;;;;11.70;72.86;-19524.53;4940070;28;45453;-82
2023/01/13 06:51:38;;;;;;;;;45.67;39.67;;;;;11.38;72.84;-19516.19;4936594;28;46362;-82
2023/01/13 06:54:04;;;;;;;;;38.75;32.50;;;;;12.02;72.46;-19533.03;4949037;28;45373;-82
2023/01/13 06:56:29;;;;;;;;;38.33;34.00;;;;;11.81;72.50;-19527.50;4924326;28;45606;-82
2023/01/13 06:58:54;;;;;;;;;29.00;25.75;;;;;11.63;72.37;-19522.66;4939739;28;45462;-81
2023/01/13 07:01:20;;;;;;;;;39.50;33.75;;;;;11.93;71.97;-19530.59;4941993;28;46885;-83
2023/01/13 07:03:45;;;;;;;;;26.50;23.75;;;;;12.02;72.00;-19533.03;4925751;28;45805;-83
2023/01/13 07:06:11;;;;;;;;;28.00;23.50;;;;;12.08;72.31;-19534.38;4934254;28;45398;-83
2023/01/13 07:08:36;;;;;;;;;25.50;25.00;;;;;12.07;72.08;-19534.22;4935257;28;45427;-83
2023/01/13 07:11:02;;;;;;;;;27.75;27.75;;;;;11.84;72.12;-19528.16;4926456;28;46700;-83
2023/01/13 07:16:11;;;;;;;;;17.50;17.50;;;;;11.62;71.42;-19522.50;4931057;28;45553;-83
2023/01/13 07:18:37;;;;;;;;;19.75;18.75;;;;;11.08;71.51;-19508.22;4939629;28;45407;-82
2023/01/13 07:21:06;;;;;;;;;16.00;13.50;;;;;12.05;71.28;-19533.69;4933549;28;45827;-83
2023/01/13 07:23:35;;;;;;;;;20.25;17.25;;;;;12.08;71.52;-19534.38;4938839;28;45483;-83
2023/01/13 07:26:01;;;;;;;;;11.50;11.50;;;;;11.76;71.38;-19526.00;4944954;28;45478;-83
2023/01/13 07:28:27;;;;;;;;;6.00;5.00;;;;;11.89;71.22;-19529.38;4947254;28;45821;-83
2023/01/13 07:30:53;;;;;;;;;1.33;1.00;;;;;12.11;71.07;-19535.19;4922106;28;48524;-83
2023/01/13 07:33:19;;;;;;;;;1.00;1.00;;;;;11.96;71.24;-19531.28;4936654;28;45529;-83
2023/01/13 07:35:45;;;;;;;;;2.00;2.00;;;;;11.84;71.18;-19528.31;4948102;28;45607;-83
2023/01/13 07:38:10;;;;;;;;;5.00;2.00;;;;;12.15;71.04;-19536.25;4951392;28;45513;-83
2023/01/13 07:40:36;;;;;;;;;4.67;2.67;;;;;11.95;71.44;-19531.13;4916245;28;45626;-83
2023/01/13 07:45:45;;;;;;;;;0.00;0.00;;;;;11.80;71.04;-19527.09;4923775;28;45462;-83
2023/01/13 07:48:11;;;;;;;;;1.00;1.00;;;;;12.14;71.18;-19536.13;4934832;28;45570;-82
2023/01/13 07:50:36;;;;;;;;;2.00;2.00;;;;;12.11;71.06;-19535.19;4938571;28;46192;-83
2023/01/13 07:53:02;;;;;;;;;1.33;1.33;;;;;12.01;71.39;-19532.63;4939145;28;45467;-83
2023/01/13 07:55:27;;;;;;;;;3.00;1.00;;;;;11.39;71.27;-19516.31;4950717;28;46008;-82
2023/01/13 07:57:52;;;;;;;;;11.25;8.75;;;;;11.81;71.60;-19527.50;4949575;28;45578;-82
2023/01/13 08:00:18;;;;;;;;;4.00;4.00;;;;;11.76;71.50;-19526.00;4946173;28;46195;-83
2023/01/13 08:02:43;;;;;;;;;8.33;7.67;;;;;12.13;71.58;-19535.72;4938002;28;45929;-82
2023/01/13 08:05:09;;;;;;;;;19.50;16.50;;;;;11.72;71.40;-19524.94;4936134;28;45718;-82
2023/01/13 08:07:34;;;;;;;;;13.00;10.50;;;;;10.76;71.43;-19499.88;4923183;28;45787;-83
2023/01/13 08:10:00;;;;;;;;;2.00;0.67;;;;;11.69;71.14;-19524.25;4942706;28;45679;-82
2023/01/13 08:15:11;;;;;;;;;15.00;11.75;;;;;12.09;71.48;-19534.63;4938670;28;45565;-83
2023/01/13 08:17:36;;;;;;;;;3.00;1.67;;;;;12.08;71.31;-19534.38;4924534;28;45478;-84
2023/01/13 08:20:05;;;;;;;;;15.50;14.50;;;;;11.78;71.56;-19526.56;4926083;28;46355;-83
2023/01/13 08:22:32;;;;;;;;;3.33;3.00;;;;;12.06;71.64;-19533.97;4938329;28;45606;-83
2023/01/13 08:25:00;;;;;;;;;2.00;2.00;;;;;12.08;71.45;-19534.50;4938100;28;45497;-82
2023/01/13 08:27:25;;;;;;;;;0.00;0.00;;;;;11.70;71.32;-19524.53;4939865;28;45547;-82
2023/01/13 08:29:50;;;;;;;;;2.00;2.00;;;;;12.08;71.59;-19534.50;4939119;28;46053;-81
2023/01/13 08:32:16;;;;;;;;;2.67;2.67;;;;;12.12;71.45;-19535.44;4937866;28;45306;-80
2023/01/13 08:34:41;;;;;;;;;6.00;4.67;;;;;12.13;71.25;-19535.84;4936983;28;45545;-82
2023/01/13 08:37:07;;;;;;;;;3.33;2.00;;;;;12.16;71.24;-19536.66;4938139;28;45843;-81
2023/01/13 08:39:32;;;;;;;;;1.67;1.00;;;;;12.13;71.42;-19535.84;4935244;28;45796;-83
2023/01/13 08:41:57;;;;;;;;;2.00;2.00;;;;;11.96;71.30;-19531.41;4938253;28;45450;-82
2023/01/13 08:44:28;;;;;;;;;2.33;1.67;;;;;11.90;71.28;-19529.66;4915375;28;45668;-81
2023/01/13 08:46:54;;;;;;;;;3.00;2.00;;;;;12.07;71.25;-19534.22;4934459;28;45363;-81
2023/01/13 08:49:21;;;;;;;;;0.00;0.00;;;;;11.71;71.47;-19524.81;4937900;28;46170;-82
2023/01/13 08:51:47;;;;;;;;;6.00;3.67;;;;;12.16;71.25;-19536.66;4920766;28;46123;-81
2023/01/13 08:54:12;;;;;;;;;1.67;1.67;;;;;12.16;71.04;-19536.53;4937573;28;45403;-81
2023/01/13 08:56:39;;;;;;;;;3.00;3.00;;;;;12.15;70.95;-19536.25;4938255;28;45415;-81
2023/01/13 08:59:08;;;;;;;;;4.00;2.67;;;;;12.16;71.24;-19536.53;4937689;28;45478;-82
2023/01/13 09:01:34;;;;;;;;;3.67;2.67;;;;;12.17;71.51;-19536.94;4936477;28;45370;-81
2023/01/13 09:03:59;;;;;;;;;5.00;3.00;;;;;12.16;71.10;-19536.53;4920935;28;45434;-81
2023/01/13 09:06:24;;;;;;;;;4.67;2.00;;;;;12.18;71.43;-19537.19;4936811;28;45457;-82
2023/01/13 09:08:50;;;;;;;;;5.67;2.67;;;;;12.09;71.29;-19534.63;4936046;28;47105;-81
2023/01/13 09:14:03;;;;;;;;;2.00;2.00;;;;;12.29;71.45;-19540.03;4938100;28;45462;-82
2023/01/13 09:16:28;;;;;;;;;3.00;3.00;;;;;12.34;71.15;-19541.22;4936754;28;45748;-81
2023/01/13 09:18:53;;;;;;;;;4.00;3.00;;;;;12.35;71.24;-19541.63;4920482;28;47162;-81
2023/01/13 09:21:19;;;;;;;;;2.00;1.00;;;;;12.40;71.11;-19542.97;4919974;28;45925;-80
2023/01/13 09:23:45;;;;;;;;;3.33;0.67;;;;;12.03;70.58;-19533.28;4937291;28;45468;-81
2023/01/13 09:26:15;;;;;;;;;3.67;2.00;;;;;12.38;70.45;-19542.44;4936457;28;45462;-81
2023/01/13 09:28:40;;;;;;;;;5.33;2.00;;;;;12.36;70.21;-19541.91;4940671;28;45338;-81
2023/01/13 09:31:05;;;;;;;;;3.00;3.00;;;;;11.88;70.50;-19529.25;4929728;28;46651;-81
2023/01/13 09:36:14;;;;;;;;;4.00;2.33;;;;;12.34;70.57;-19541.38;4927929;28;45416;-82
2023/01/13 09:38:40;;;;;;;;;4.00;4.00;;;;;12.46;70.17;-19544.59;4946090;28;46402;-83
2023/01/13 09:43:52;;;;;;;;;5.33;3.00;;;;;11.79;70.25;-19526.97;4940587;28;45430;-82
2023/01/13 09:43:57;;;;;;;;;4.00;2.00;;;;;12.57;69.82;-19547.44;4933160;28;45570;-84
2023/01/13 09:46:47;;;;;;;;;3.00;2.67;;;;;12.70;69.55;-19550.66;4941360;28;45609;-82
2023/01/13 09:49:21;;;;;;;;;2.00;2.00;;;;;12.28;69.11;-19539.63;4932476;28;46418;-85
2023/01/13 09:51:57;;;;;;;;;6.67;5.00;;;;;12.51;68.98;-19545.81;4936860;28;45442;-85
2023/01/13 09:54:43;;;;;;;;;16.33;14.00;;;;;12.50;68.59;-19545.53;4941548;28;45823;-83
2023/01/13 09:57:11;;;;;;;;;26.50;25.50;;;;;12.41;68.49;-19543.25;4944674;28;45578;-84
2023/01/13 09:59:37;;;;;;;;;63.67;52.67;;;;;12.71;68.15;-19551.06;4944353;28;46172;-85
2023/01/13 10:02:14;;;;;;;;;61.67;51.00;;;;;13.06;68.10;-19560.34;4918174;28;45862;-81
2023/01/13 10:04:40;;;;;;;;;59.00;48.67;;;;;12.75;67.83;-19552.13;4936735;28;45935;-83
2023/01/13 10:07:13;;;;;;;;;65.00;53.67;;;;;13.07;67.94;-19560.63;4919632;28;45921;-81
2023/01/13 10:09:51;;;;;;;;;66.00;54.50;;;;;12.72;67.70;-19551.34;4930851;28;46067;-81
2023/01/13 10:15:15;;;;;;;;;61.00;51.00;;;;;12.89;67.86;-19555.91;4933683;28;45507;-81
2023/01/13 10:17:49;;;;;;;;;62.00;51.33;;;;;12.35;68.01;-19541.63;4947703;28;45477;-79
2023/01/13 10:20:28;;;;;;;;;56.50;47.50;;;;;12.97;67.38;-19557.78;4938342;28;45460;-81
2023/01/13 10:23:03;;;;;;;;;55.00;45.33;;;;;13.03;67.40;-19559.41;4919882;28;45525;-82
2023/01/13 10:25:49;;;;;;;;;54.67;45.33;;;;;13.01;67.44;-19558.88;4926146;28;45536;-81
2023/01/13 10:28:18;;;;;;;;;57.00;46.25;;;;;13.05;67.51;-19560.06;4932857;28;45609;-82
2023/01/13 10:30:46;;;;;;;;;62.00;47.33;;;;;13.04;67.30;-19559.66;4931466;28;45712;-82
2023/01/13 10:33:18;;;;;;;;;58.33;46.33;;;;;13.04;67.27;-19559.81;4931136;28;45430;-82
2023/01/13 10:36:20;;;;;;;;;50.33;43.00;;;;;13.10;67.68;-19561.41;4915907;28;45584;-81
2023/01/13 10:38:48;;;;;;;;;58.25;48.25;;;;;13.26;67.32;-19565.47;4877185;29;45801;-82
2023/01/13 10:41:19;;;;;;;;;56.00;45.00;;;;;13.35;66.98;-19567.88;4890054;29;46229;-84
2023/01/13 10:44:02;;;;;;;;;60.67;45.33;;;;;13.52;66.82;-19572.31;4875395;29;45512;-84
2023/01/13 10:46:29;;;;;;;;;65.33;50.67;;;;;13.52;66.51;-19572.31;4888448;29;45635;-83
2023/01/13 10:49:17;;;;;;;;;66.33;50.33;;;;;13.81;66.10;-19579.84;4881757;29;45546;-83
2023/01/13 10:51:43;;;;;;;;;62.33;46.00;;;;;13.55;65.82;-19573.00;4876182;29;45548;-83
2023/01/13 10:54:11;;;;;;;;;54.67;40.67;;;;;13.98;65.42;-19584.28;4891085;29;45695;-83
2023/01/13 10:56:42;;;;;;;;;43.75;29.25;;;;;13.68;65.80;-19576.50;4879649;29;45582;-83
2023/01/13 10:59:15;;;;;;;;;20.75;19.75;;;;;14.12;65.52;-19588.03;4876082;29;45502;-83
2023/01/13 11:02:22;;;;;;;;;15.00;15.00;;;;;14.10;65.59;-19587.63;4880817;29;47179;-82
2023/01/13 11:04:53;;;;;;;;;16.25;15.00;;;;;14.07;65.27;-19586.69;4880555;29;45752;-83
2023/01/13 11:07:34;;;;;;;;;13.25;5.50;;;;;14.02;65.62;-19585.50;4884821;29;45534;-83
2023/01/13 11:10:08;;;;;;;;;16.75;9.00;;;;;13.97;65.64;-19584.00;4861020;29;45420;-83
2023/01/13 11:12:44;;;;;;;;;17.00;14.75;;;;;13.45;65.77;-19570.44;4862310;29;45920;-84
2023/01/13 11:15:16;;;;;;;;;33.00;31.75;;;;;13.96;66.19;-19583.75;4925530;28;45949;-84
2023/01/13 11:17:44;;;;;;;;;19.75;14.25;;;;;13.91;65.51;-19582.66;4933852;28;45489;-84
2023/01/13 11:20:19;;;;;;;;;16.75;4.75;;;;;12.93;65.72;-19556.72;4935973;28;45934;-84
2023/01/13 11:22:54;;;;;;;;;13.33;0.67;;;;;13.88;65.49;-19581.88;4936408;28;45452;-82
2023/01/13 11:25:32;;;;;;;;;21.50;8.25;;;;;13.90;65.95;-19582.25;4936347;28;45508;-83
2023/01/13 11:28:18;;;;;;;;;22.25;9.25;;;;;13.82;65.81;-19580.25;4945098;28;45534;-82
2023/01/13 11:31:07;;;;;;;;;20.50;9.00;;;;;13.76;65.95;-19578.63;4936816;28;45515;-82
2023/01/13 11:34:17;;;;;;;;;21.75;9.00;;;;;13.86;65.65;-19581.19;4922852;28;47374;-82
2023/01/13 11:36:49;;;;;;;;;21.75;8.00;;;;;13.78;65.76;-19579.03;4881861;29;45590;-84
2023/01/13 11:39:25;;;;;;;;;21.00;11.25;;;;;13.99;65.88;-19584.69;4882833;29;45964;-84
2023/01/13 11:42:23;;;;;;;;;29.50;27.50;;;;;14.12;65.83;-19588.03;4886809;29;45716;-82
2023/01/13 11:45:16;;;;;;;;;18.00;5.33;;;;;14.27;65.14;-19591.94;4885289;28;46201;-83
2023/01/13 11:47:45;;;;;;;;;15.33;1.67;;;;;14.31;64.27;-19593.00;4884344;29;45578;-84
2023/01/13 11:50:35;;;;;;;;;16.00;2.00;;;;;14.09;63.92;-19587.38;4887669;29;45497;-82
2023/01/13 11:53:28;;;;;;;;;5.67;1.67;;;;;14.58;63.48;-19600.13;4891815;29;45490;-83
2023/01/13 11:56:23;;;;;;;;;6.33;6.33;;;;;14.59;62.77;-19600.41;4889829;28;47535;-84
2023/01/13 11:59:10;;;;;;;;;10.33;10.33;;;;;14.67;62.25;-19602.41;4892257;28;46118;-82
2023/01/13 12:02:02;;;;;;;;;10.00;10.00;;;;;14.72;62.00;-19603.75;4887654;29;45806;-83
2023/01/13 12:04:46;;;;;;;;;8.75;8.75;;;;;14.48;61.76;-19597.44;4890920;29;46046;-81
2023/01/13 12:07:32;;;;;;;;;16.00;3.00;;;;;14.44;61.02;-19596.38;4896931;29;47298;-82
2023/01/13 12:10:19;;;;;;;;;16.00;2.67;;;;;14.61;60.84;-19600.81;4901290;28;45511;-82
2023/01/13 12:13:03;;;;;;;;;16.33;2.67;;;;;14.52;60.61;-19598.66;4944449;28;45495;-82
2023/01/13 12:16:10;;;;;;;;;17.67;4.33;;;;;14.59;60.90;-19600.28;4926261;28;45593;-82
2023/01/13 12:18:47;;;;;;;;;16.67;3.00;;;;;14.64;60.38;-19601.63;4883705;29;47288;-82